Time;durP1;ratioP1;P1;durP2;ratioP2;P2;SDS_P1;SDS_P2;PMS_P1;PMS_P2;Temp;Humidity;BMP_temperature;BMP_pressure;BME280_temperature;BME280_humidity;BME280_pressure;Samples;Min_cycle;Max_cycle;Signal;HPM_P1;HPM_P2
2022/10/27 00:00:32;;;;;;;4.78;3.72;;;;;;;10.80;100.00;100162.97;1683833;85;21051;-77
2022/10/27 00:02:59;;;;;;;8.40;3.52;;;;;;;10.81;100.00;100170.06;1644832;87;21058;-78
2022/10/27 00:05:27;;;;;;;4.42;3.08;;;;;;;10.80;100.00;100164.33;1683418;84;21110;-79
2022/10/27 00:07:54;;;;;;;6.40;3.42;;;;;;;10.80;100.00;100165.68;1644726;87;21070;-77
2022/10/27 00:10:21;;;;;;;7.90;3.35;;;;;;;10.80;100.00;100165.68;1683640;85;21066;-77
2022/10/27 00:12:49;;;;;;;5.60;3.42;;;;;;;10.80;100.00;100172.92;1644793;87;21124;-77
2022/10/27 00:15:17;;;;;;;6.58;3.33;;;;;;;10.76;100.00;100175.13;1683714;85;21107;-78
2022/10/27 00:17:44;;;;;;;4.92;2.92;;;;;;;10.76;100.00;100177.83;1644717;87;21053;-75
2022/10/27 00:20:11;;;;;;;5.78;3.95;;;;;;;10.75;100.00;100180.22;1684036;85;21034;-77
2022/10/27 00:22:38;;;;;;;6.30;3.62;;;;;;;10.74;100.00;100180.38;1644907;87;21034;-77
2022/10/27 00:25:05;;;;;;;7.15;3.52;;;;;;;10.72;100.00;100190.02;1717665;82;21033;-77
2022/10/27 00:27:32;;;;;;;6.45;3.72;;;;;;;10.73;100.00;100192.20;1753605;82;21022;-78
2022/10/27 00:30:00;;;;;;;5.95;3.58;;;;;;;10.71;100.00;100191.05;1722402;83;21063;-77
2022/10/27 00:32:26;;;;;;;7.25;3.42;;;;;;;10.73;100.00;100194.91;1753350;82;21037;-77
2022/10/27 00:34:53;;;;;;;7.30;3.90;;;;;;;10.74;100.00;100192.55;1722390;83;21003;-77
2022/10/27 00:37:20;;;;;;;6.42;3.65;;;;;;;10.75;100.00;100202.37;1755338;82;21463;-77
2022/10/27 00:39:47;;;;;;;6.05;3.72;;;;;;;10.73;100.00;100197.13;1756247;82;21050;-78
2022/10/27 00:42:14;;;;;;;7.15;3.87;;;;;;;10.74;100.00;100193.39;1724511;83;21034;-77
2022/10/27 00:44:44;;;;;;;7.60;3.87;;;;;;;10.73;100.00;100199.83;1724832;83;21026;-78
2022/10/27 00:47:31;;;;;;;7.83;3.77;;;;;;;10.72;100.00;100200.83;1667063;85;21621;-78
2022/10/27 00:50:08;;;;;;;7.08;4.10;;;;;;;10.73;100.00;100190.84;1692504;85;21528;-77
2022/10/27 00:52:51;;;;;;;7.22;3.42;;;;;;;10.72;100.00;100198.12;1692297;85;21609;-77
2022/10/27 00:55:32;;;;;;;6.40;3.50;;;;;;;10.72;100.00;100192.72;1692494;85;21118;-78
2022/10/27 00:58:10;;;;;;;5.42;3.77;;;;;;;10.72;100.00;100189.17;1692480;85;21133;-79
2022/10/27 01:00:39;;;;;;;6.47;3.62;;;;;;;10.72;100.00;100182.41;1651104;86;21130;-78
2022/10/27 01:03:06;;;;;;;5.58;3.72;;;;;;;10.72;100.00;100177.84;1673735;86;21125;-76
2022/10/27 01:05:34;;;;;;;7.17;3.70;;;;;;;10.72;100.00;100173.78;1673943;86;21015;-78
2022/10/27 01:08:04;;;;;;;6.12;3.67;;;;;;;10.73;100.00;100172.78;1673749;86;21034;-79
2022/10/27 01:10:31;;;;;;;5.28;3.83;;;;;;;10.74;100.00;100176.33;1673631;86;21059;-77
2022/10/27 01:12:58;;;;;;;8.08;3.98;;;;;;;10.72;100.00;100177.84;1673526;86;21090;-78
2022/10/27 01:15:40;;;;;;;7.20;4.00;;;;;;;10.72;100.00;100168.38;1673554;86;21070;-77
2022/10/27 01:18:25;;;;;;;7.15;3.92;;;;;;;10.70;100.00;100168.22;1670481;86;21039;-76
2022/10/27 01:21:20;;;;;;;5.62;3.67;;;;;;;10.69;100.00;100161.94;1673548;86;21095;-79
2022/10/27 01:23:53;;;;;;;;;;;;;;;10.69;100.00;100169.22;1676420;86;21067;-78
2022/10/27 01:26:57;;;;;;;4.62;3.37;;;;;;;10.69;100.00;100175.98;1673102;85;20142;-78
2022/10/27 01:29:46;;;;;;;;;;;;;;;10.67;100.00;100176.14;1676288;84;21085;-79
2022/10/27 01:32:56;;;;;;;4.65;3.12;;;;;;;10.66;100.00;100171.77;1616299;89;20143;-78
2022/10/27 01:35:53;;;;;;;6.03;3.58;;;;;;;10.64;100.00;100168.36;1616450;86;21025;-77
2022/10/27 01:38:28;;;;;;;3.42;2.77;;;;;;;10.61;100.00;100166.85;1616599;89;21105;-78
2022/10/27 01:41:29;;;;;;;6.47;3.33;;;;;;;10.62;100.00;100169.91;1590973;90;21082;-78
2022/10/27 01:44:00;;;;;;;5.00;3.10;;;;;;;10.60;100.00;100161.61;1590369;90;21116;-78
2022/10/27 01:46:28;;;;;;;3.90;3.10;;;;;;;10.57;100.00;100162.80;1559301;90;21142;-75
2022/10/27 01:48:55;;;;;;;2.90;2.60;;;;;;;10.56;100.00;100159.75;1561797;92;21332;-79
2022/10/27 01:51:22;;;;;;;4.50;3.27;;;;;;;10.57;100.00;100157.88;1562184;92;21073;-78
2022/10/27 01:53:49;;;;;;;7.65;3.42;;;;;;;10.56;100.00;100158.39;1577862;90;21118;-80
2022/10/27 01:56:46;;;;;;;3.62;3.02;;;;;;;10.59;100.00;100165.34;1562066;92;21121;-78
2022/10/27 01:59:46;;;;;;;4.60;2.60;;;;;;;10.57;100.00;100164.16;1579251;91;21077;-78
2022/10/27 02:02:38;;;;;;;4.50;2.80;;;;;;;10.58;100.00;100156.88;1587465;90;21143;-76
2022/10/27 02:05:11;;;;;;;4.75;2.83;;;;;;;10.57;100.00;100147.06;1586787;90;21025;-77
2022/10/27 02:08:24;;;;;;;2.62;2.42;;;;;;;10.57;100.00;100149.77;1583600;91;21089;-79
2022/10/27 02:11:04;;;;;;;5.25;3.12;;;;;;;10.56;100.00;100148.94;1583887;89;21077;-75
2022/10/27 02:13:32;;;;;;;3.25;2.47;;;;;;;10.55;100.00;100148.61;1583902;91;21069;-78
2022/10/27 02:16:10;;;;;;;3.70;2.70;;;;;;;10.54;100.00;100154.19;1584056;91;21519;-79
2022/10/27 02:18:44;;;;;;;3.90;2.77;;;;;;;10.54;100.00;100156.89;1540470;93;21108;-80
2022/10/27 02:21:11;;;;;;;3.45;2.60;;;;;;;10.54;100.00;100153.67;1540523;92;21120;-79
2022/10/27 02:23:38;;;;;;;2.70;2.25;;;;;;;10.54;100.00;100153.67;1540908;93;21085;-79
2022/10/27 02:26:35;;;;;;;2.80;2.30;;;;;;;10.56;100.00;100157.56;1540468;93;21107;-78
2022/10/27 02:29:06;;;;;;;2.58;2.35;;;;;;;10.57;100.00;100157.88;1567052;90;21131;-79
2022/10/27 02:31:37;;;;;;;3.37;2.35;;;;;;;10.58;100.00;100157.72;1597281;90;21095;-79
2022/10/27 02:34:05;;;;;;;3.50;2.37;;;;;;;10.58;100.00;100153.66;1581633;90;21083;-78
2022/10/27 02:36:32;;;;;;;3.72;2.60;;;;;;;10.57;100.00;100158.75;1578239;89;21036;-79
2022/10/27 02:38:58;;;;;;;4.20;2.85;;;;;;;10.59;100.00;100155.36;1602648;90;21095;-79
2022/10/27 02:41:26;;;;;;;3.40;2.50;;;;;;;10.58;100.00;100150.95;1602446;90;21135;-78
2022/10/27 02:43:54;;;;;;;3.92;2.27;;;;;;;10.59;100.00;100155.36;1602610;90;21132;-78
2022/10/27 02:46:21;;;;;;;6.42;2.62;;;;;;;10.61;100.00;100153.84;1602494;90;21067;-80
2022/10/27 02:48:48;;;;;;;4.35;2.72;;;;;;;10.62;100.00;100154.17;1602628;90;21092;-80
2022/10/27 02:51:15;;;;;;;3.05;2.75;;;;;;;10.62;100.00;100149.63;1602490;90;21032;-81
2022/10/27 02:53:41;;;;;;;4.80;2.92;;;;;;;10.65;100.00;100144.38;1602687;90;21140;-78
2022/10/27 02:56:08;;;;;;;6.78;3.00;;;;;;;10.67;100.00;100148.27;1667255;86;20986;-80
2022/10/27 02:58:36;;;;;;;5.40;3.50;;;;;;;10.67;100.00;100138.28;1711398;83;21380;-79
2022/10/27 03:01:03;;;;;;;6.28;3.87;;;;;;;10.68;100.00;100142.69;1723795;83;21046;-81
2022/10/27 03:03:30;;;;;;;6.10;4.00;;;;;;;10.69;100.00;100142.17;1723678;83;21039;-80
2022/10/27 03:05:57;;;;;;;9.00;4.70;;;;;;;10.70;100.00;100146.58;1723812;83;21523;-79
2022/10/27 03:08:24;;;;;;;7.62;4.17;;;;;;;10.70;100.00;100137.95;1724052;83;21603;-80
2022/10/27 03:10:52;;;;;;;8.28;4.40;;;;;;;10.72;100.00;100148.61;1723871;83;21038;-79
2022/10/27 03:13:19;;;;;;;6.15;4.25;;;;;;;10.72;100.00;100148.09;1724127;83;21038;-79
2022/10/27 03:15:46;;;;;;;7.28;4.42;;;;;;;10.74;100.00;100156.88;1781216;80;21039;-79
2022/10/27 03:18:13;;;;;;;7.12;4.53;;;;;;;10.74;100.00;100154.69;1791147;80;21038;-77
2022/10/27 03:20:40;;;;;;;8.23;4.10;;;;;;;10.75;100.00;100148.28;1790792;80;21037;-80
2022/10/27 03:23:07;;;;;;;7.72;4.33;;;;;;;10.77;100.00;100155.71;1790871;80;21085;-79
2022/10/27 03:25:36;;;;;;;9.03;4.20;;;;;;;10.77;100.00;100159.77;1791165;80;21073;-80
2022/10/27 03:28:02;;;;;;;10.72;4.45;;;;;;;10.79;100.00;100161.79;1791126;80;20987;-79
2022/10/27 03:30:30;;;;;;;7.55;4.70;;;;;;;10.80;100.00;100160.27;1790996;80;21054;-80
2022/10/27 03:32:57;;;;;;;8.50;4.47;;;;;;;10.79;100.00;100153.67;1791285;80;21050;-79
2022/10/27 03:35:24;;;;;;;8.25;4.67;;;;;;;10.80;100.00;100163.45;1790858;80;20994;-79
2022/10/27 03:37:56;;;;;;;8.95;4.78;;;;;;;10.82;100.00;100160.11;1790831;80;21015;-78
2022/10/27 03:40:23;;;;;;;8.15;4.00;;;;;;;10.81;100.00;100164.65;1791048;80;21054;-80
2022/10/27 03:42:49;;;;;;;8.30;4.53;;;;;;;10.82;100.00;100161.45;1791042;80;20993;-78
2022/10/27 03:45:16;;;;;;;7.72;4.33;;;;;;;10.82;100.00;100165.00;1790712;80;21116;-79
2022/10/27 03:47:43;;;;;;;9.33;4.58;;;;;;;10.83;100.00;100163.13;1790799;80;21006;-78
2022/10/27 03:50:10;;;;;;;12.80;4.67;;;;;;;10.83;100.00;100165.83;1791004;80;20998;-77
2022/10/27 03:52:37;;;;;;;7.28;4.60;;;;;;;10.83;100.00;100163.97;1790930;80;21085;-78
2022/10/27 03:55:05;;;;;;;8.08;4.10;;;;;;;10.84;100.00;100170.24;1790707;80;21053;-80
2022/10/27 03:57:33;;;;;;;9.23;4.67;;;;;;;10.83;100.00;100172.59;1790773;80;21084;-80
2022/10/27 04:00:00;;;;;;;9.53;5.00;;;;;;;10.85;100.00;100165.16;1791080;80;21034;-81
2022/10/27 04:02:26;;;;;;;6.45;3.92;;;;;;;10.86;100.00;100170.08;1791170;80;21033;-80
2022/10/27 04:04:56;;;;;;;7.62;4.47;;;;;;;10.86;100.00;100166.02;1791008;79;21186;-79
2022/10/27 04:07:23;;;;;;;7.97;4.10;;;;;;;10.87;100.00;100167.20;1791262;80;20979;-80
2022/10/27 04:09:50;;;;;;;8.23;4.42;;;;;;;10.86;100.00;100166.02;1791072;80;21080;-80
2022/10/27 04:12:17;;;;;;;7.83;3.92;;;;;;;10.85;100.00;100151.63;1790813;80;21054;-80
2022/10/27 04:14:45;;;;;;;6.00;3.83;;;;;;;10.85;100.00;100151.63;1790911;80;21053;-81
2022/10/27 04:17:12;;;;;;;5.97;3.72;;;;;;;10.84;100.00;100158.07;1790827;79;20995;-81
2022/10/27 04:19:38;;;;;;;6.47;4.08;;;;;;;10.83;100.00;100146.38;1790683;80;21078;-78
2022/10/27 04:22:07;;;;;;;4.58;3.33;;;;;;;10.82;100.00;100147.94;1790697;80;21484;-79
2022/10/27 04:24:34;;;;;;;8.30;3.25;;;;;;;10.81;100.00;100141.66;1790676;80;21061;-82
2022/10/27 04:27:01;;;;;;;10.00;3.87;;;;;;;10.80;100.00;100138.63;1790820;80;21015;-78
2022/10/27 04:29:28;;;;;;;5.90;3.17;;;;;;;10.81;100.00;100125.95;1790572;80;21062;-80
2022/10/27 04:31:55;;;;;;;7.37;3.77;;;;;;;10.80;100.00;100121.53;1790868;80;21082;-80
2022/10/27 04:34:22;;;;;;;5.22;3.37;;;;;;;10.81;100.00;100126.78;1790748;80;21054;-78
2022/10/27 04:36:49;;;;;;;7.22;3.25;;;;;;;10.81;100.00;100121.89;1790851;79;21535;-80
2022/10/27 04:39:16;;;;;;;7.37;3.62;;;;;;;10.81;100.00;100125.95;1790676;80;21404;-80
2022/10/27 04:41:42;;;;;;;12.23;5.28;;;;;;;10.80;100.00;100118.83;1791091;80;21038;-79
2022/10/27 04:44:09;;;;;;;6.10;3.70;;;;;;;10.80;100.00;100111.59;1791084;80;21032;-79
2022/10/27 04:46:37;;;;;;;5.05;3.45;;;;;;;10.79;100.00;100100.41;1789848;80;21559;-78
2022/10/27 04:49:06;;;;;;;7.05;3.90;;;;;;;10.79;100.00;100094.17;1789455;80;21468;-80
2022/10/27 04:51:33;;;;;;;7.62;3.60;;;;;;;10.79;100.00;100088.24;1789357;80;21013;-80
2022/10/27 04:54:00;;;;;;;5.90;3.35;;;;;;;10.79;100.00;100079.30;1760744;80;21085;-80
2022/10/27 04:56:29;;;;;;;4.55;3.62;;;;;;;10.79;100.00;100076.07;1789129;80;21042;-79
2022/10/27 04:58:56;;;;;;;7.78;3.87;;;;;;;10.79;100.00;100069.31;1789270;80;21034;-78
2022/10/27 05:01:23;;;;;;;8.33;4.50;;;;;;;10.79;100.00;100069.31;1789306;80;21042;-80
2022/10/27 05:03:49;;;;;;;5.70;3.92;;;;;;;10.79;100.00;100065.77;1789619;80;21007;-79
2022/10/27 05:06:17;;;;;;;5.53;3.60;;;;;;;10.80;100.00;100066.09;1789045;80;21053;-82
2022/10/27 05:08:45;;;;;;;5.15;3.12;;;;;;;10.79;100.00;100063.06;1789640;80;21018;-85
2022/10/27 05:11:12;;;;;;;5.03;3.20;;;;;;;10.76;100.00;100060.18;1755307;82;21003;-82
2022/10/27 05:13:38;;;;;;;7.87;3.65;;;;;;;10.77;100.00;100060.53;1725801;83;20999;-80
2022/10/27 05:16:07;;;;;;;5.97;3.27;;;;;;;10.76;100.00;100054.77;1751649;82;21010;-79
2022/10/27 05:18:37;;;;;;;6.75;3.40;;;;;;;10.77;100.00;100061.05;1751906;82;21026;-80
2022/10/27 05:21:04;;;;;;;4.55;3.40;;;;;;;10.77;100.00;100056.98;1744639;82;21031;-77
2022/10/27 05:23:31;;;;;;;4.20;3.42;;;;;;;10.77;100.00;100059.70;1751207;82;20998;-80
2022/10/27 05:25:58;;;;;;;7.12;3.40;;;;;;;10.76;100.00;100064.23;1752182;82;20994;-78
2022/10/27 07:24:00;;;;;;;5.62;3.25;;;;;;;11.26;100.00;100293.70;1802561;77;27377;-73
2022/10/27 07:26:26;;;;;;;10.60;5.03;;;;;;;11.34;100.00;100237.34;1784104;80;21061;-78
2022/10/27 07:28:53;;;;;;;20.50;8.78;;;;;;;11.46;100.00;100227.84;1776720;80;21006;-74
2022/10/27 07:31:20;;;;;;;10.32;5.50;;;;;;;11.62;100.00;100217.48;1768631;80;21083;-75
2022/10/27 07:33:47;;;;;;;8.15;4.90;;;;;;;11.82;100.00;100208.44;1786343;78;21022;-76
2022/10/27 07:36:13;;;;;;;10.75;3.52;;;;;;;11.99;100.00;100189.42;1781814;79;20969;-77
2022/10/27 07:38:40;;;;;;;5.83;3.00;;;;;;;12.18;100.00;100171.37;1784028;79;21057;-73
2022/10/27 07:41:06;;;;;;;8.48;4.78;;;;;;;12.34;100.00;100143.31;1778602;79;21010;-77
2022/10/27 07:43:35;;;;;;;7.90;5.05;;;;;;;12.46;100.00;100125.59;1759710;79;21016;-78
2022/10/27 07:46:02;;;;;;;6.95;3.50;;;;;;;12.54;100.00;100095.70;1765160;80;21041;-77
2022/10/27 07:48:29;;;;;;;6.00;3.50;;;;;;;12.61;100.00;100082.27;1764563;79;21124;-76
2022/10/27 07:50:56;;;;;;;6.80;3.72;;;;;;;12.67;100.00;100061.17;1771973;80;21126;-74
2022/10/27 07:53:23;;;;;;;5.22;3.10;;;;;;;12.75;100.00;100038.56;1781924;79;21463;-73
2022/10/27 07:55:51;;;;;;;7.40;4.33;;;;;;;12.80;100.00;100025.78;1765708;79;21049;-74
2022/10/27 07:58:29;;;;;;;9.20;3.72;;;;;;;12.81;100.00;100009.84;1755508;80;21041;-71
2022/10/27 08:01:02;;;;;;;4.75;3.40;;;;;;;12.78;100.00;100007.48;1670920;85;21083;-74
2022/10/27 08:03:30;;;;;;;6.42;3.27;;;;;;;12.73;100.00;100007.55;1677128;84;21132;-73
2022/10/27 08:06:02;;;;;;;4.80;3.15;;;;;;;12.68;100.00;100003.70;1682602;84;21069;-75
2022/10/27 08:08:30;;;;;;;3.05;2.75;;;;;;;12.64;100.00;100007.80;1687385;83;21526;-77
2022/10/27 08:10:57;;;;;;;46.63;28.73;;;;;;;12.64;100.00;100007.31;1697121;83;21041;-75
2022/10/27 08:13:24;;;;;;;9.00;4.72;;;;;;;12.68;100.00;100011.84;1685561;84;21055;-82
2022/10/27 08:15:50;;;;;;;6.47;3.52;;;;;;;12.80;100.00;100027.13;1685470;84;21182;-71
2022/10/27 08:18:17;;;;;;;8.50;3.40;;;;;;;12.91;100.00;100029.41;1686869;84;21085;-72
2022/10/27 08:20:46;;;;;;;20.05;6.00;;;;;;;13.04;100.00;100023.31;1666364;84;21519;-71
2022/10/27 08:23:19;;;;;;;15.53;5.37;;;;;;;13.26;100.00;100029.16;1667465;85;21089;-73
2022/10/27 08:25:46;;;;;;;16.32;6.35;;;;;;;13.59;100.00;100026.03;1666829;86;21002;-75
2022/10/27 08:28:13;;;;;;;13.28;5.08;;;;;;;14.03;100.00;100025.56;1664298;85;21058;-74
2022/10/27 08:30:40;;;;;;;7.62;3.40;;;;;;;14.40;100.00;100016.80;1685280;83;21185;-74
2022/10/27 08:33:09;;;;;;;5.70;2.85;;;;;;;14.68;100.00;100017.34;1700369;83;21030;-73
2022/10/27 08:35:36;;;;;;;7.33;3.40;;;;;;;14.79;100.00;100016.81;1687169;83;21047;-77
2022/10/27 08:38:06;;;;;;;6.47;3.80;;;;;;;14.94;100.00;100020.77;1638188;86;21082;-74
2022/10/27 08:40:59;;;;;;;16.48;7.08;;;;;;;15.01;100.00;100035.26;1660903;85;21555;-76
2022/10/27 08:43:46;;;;;;;7.90;3.90;;;;;;;15.10;100.00;100040.89;1631268;86;21115;-73
2022/10/27 08:46:37;;;;;;;7.70;3.40;;;;;;;15.13;100.00;100048.63;1633551;86;21113;-75
2022/10/27 08:49:08;;;;;;;6.67;4.40;;;;;;;15.28;100.00;100069.45;1654236;86;21118;-73
2022/10/27 08:51:35;;;;;;;7.58;3.58;;;;;;;15.28;100.00;100069.45;1579629;89;21136;-75
2022/10/27 08:54:02;;;;;;;4.55;3.12;;;;;;;15.52;100.00;100070.31;1583728;90;21120;-74
2022/10/27 08:56:38;;;;;;;6.40;3.22;;;;;;;15.60;100.00;100095.70;1539702;87;21123;-74
2022/10/27 08:59:08;;;;;;;5.42;2.92;;;;;;;15.60;100.00;100095.70;1591191;89;21609;-75
2022/10/27 09:02:04;;;;;;;5.58;2.90;;;;;;;15.71;100.00;100098.70;1592095;89;21355;-74
2022/10/27 09:04:57;;;;;;;4.35;2.92;;;;;;;15.70;100.00;100107.91;1556841;91;21117;-74
2022/10/27 09:21:02;;;;;;;5.65;2.92;;;;;;;16.13;100.00;100132.78;1855446;77;22900;-73
2022/10/27 09:23:42;;;;;;;3.58;2.75;;;;;;;15.82;100.00;100170.09;1806659;78;20996;-75
2022/10/27 09:26:09;;;;;;;4.95;3.00;;;;;;;15.46;100.00;100179.30;1793450;80;20976;-80
2022/10/27 09:28:47;;;;;;;7.85;3.83;;;;;;;15.18;100.00;100180.14;1782002;78;20994;-80
2022/10/27 09:31:18;;;;;;;5.35;3.05;;;;;;;14.99;100.00;100180.29;1795476;79;20964;-78
2022/10/27 09:34:11;;;;;;;3.98;2.77;;;;;;;14.87;100.00;100173.16;1652000;86;21058;-80
2022/10/27 09:36:38;;;;;;;5.47;3.00;;;;;;;14.74;100.00;100177.14;1594812;89;21688;-78
2022/10/27 09:39:07;;;;;;;6.00;3.10;;;;;;;14.56;100.00;100164.80;1590632;90;21058;-80
2022/10/27 09:41:34;;;;;;;7.03;2.98;;;;;;;14.19;100.00;100178.94;1549160;90;21157;-79
2022/10/27 09:44:03;;;;;;;6.25;3.25;;;;;;;14.19;100.00;100178.94;1590434;90;21089;-83
2022/10/27 09:46:42;;;;;;;8.15;3.60;;;;;;;13.97;100.00;100180.78;1599618;89;21091;-83
2022/10/27 09:49:16;;;;;;;6.25;3.40;;;;;;;13.85;100.00;100176.33;1617270;89;21074;-79
2022/10/27 09:52:03;;;;;;;8.15;3.90;;;;;;;13.77;100.00;100165.55;1617467;89;21050;-83
2022/10/27 09:54:35;;;;;;;5.60;3.40;;;;;;;13.73;100.00;100160.70;1596224;89;21113;-84
2022/10/27 09:57:12;;;;;;;5.47;3.62;;;;;;;13.65;100.00;100165.70;1540438;93;21089;-83
2022/10/27 09:59:40;;;;;;;7.58;3.70;;;;;;;13.59;100.00;100163.22;1541241;93;21136;-81
2022/10/27 10:02:28;;;;;;;9.38;4.33;;;;;;;13.56;100.00;100154.61;1540643;92;21114;-78
2022/10/27 10:04:55;;;;;;;8.13;4.30;;;;;;;13.54;100.00;100160.75;1549843;92;21124;-79
2022/10/27 10:07:36;;;;;;;9.45;4.65;;;;;;;13.55;100.00;100149.70;1559400;92;21153;-81
2022/10/27 10:10:25;;;;;;;8.70;4.67;;;;;;;13.59;100.00;100145.56;1563051;92;21090;-80
2022/10/27 10:13:08;;;;;;;12.73;5.33;;;;;;;13.60;100.00;100142.36;1531234;93;21106;-81
2022/10/27 10:15:45;;;;;;;9.40;4.55;;;;;;;13.60;100.00;100147.27;1506329;95;21123;-78
2022/10/27 10:18:26;;;;;;;20.35;6.33;;;;;;;13.60;100.00;100149.14;1506307;95;21158;-79
2022/10/27 10:21:03;;;;;;;10.95;4.92;;;;;;;13.58;100.00;100151.19;1541134;93;21134;-79
2022/10/27 10:23:35;;;;;;;13.62;5.28;;;;;;;13.54;100.00;100148.52;1511526;94;21070;-86
2022/10/27 10:26:04;;;;;;;12.15;5.08;;;;;;;13.52;100.00;100152.78;1502094;94;21631;-83
2022/10/27 10:28:38;;;;;;;14.80;5.50;;;;;;;13.50;100.00;100141.27;1502233;96;21183;-81
2022/10/27 10:31:07;;;;;;;19.50;6.12;;;;;;;13.45;100.00;100149.97;1523826;93;21046;-81
2022/10/27 10:33:38;;;;;;;15.13;5.25;;;;;;;13.44;100.00;100151.02;1538012;93;21685;-77
2022/10/27 10:36:36;;;;;;;13.18;4.70;;;;;;;13.38;100.00;100153.63;1566692;92;21617;-79
2022/10/27 10:39:05;;;;;;;7.47;4.33;;;;;;;13.30;100.00;100139.08;1566619;92;21188;-76
2022/10/27 10:41:33;;;;;;;10.60;4.78;;;;;;;13.28;100.00;100141.66;1564446;92;21172;-79
2022/10/27 10:44:16;;;;;;;10.80;4.65;;;;;;;13.33;100.00;100142.48;1567513;92;21168;-80
2022/10/27 10:46:52;;;;;;;9.70;4.37;;;;;;;13.37;100.00;100145.14;1567543;92;21061;-81
2022/10/27 10:49:36;;;;;;;6.20;4.15;;;;;;;13.40;100.00;100145.64;1497903;96;21153;-81
2022/10/27 10:52:08;;;;;;;9.78;4.65;;;;;;;13.42;100.00;100138.63;1528443;92;21079;-78
2022/10/27 10:54:37;;;;;;;10.95;4.35;;;;;;;13.44;100.00;100139.31;1621802;88;21083;-76
2022/10/27 10:57:03;;;;;;;8.73;5.22;;;;;;;13.52;100.00;100139.20;1635634;88;20996;-79
2022/10/27 10:59:32;;;;;;;10.55;5.50;;;;;;;13.56;100.00;100139.66;1635515;88;21068;-81
2022/10/27 11:02:17;;;;;;;10.15;4.17;;;;;;;13.60;100.00;100130.12;1635263;88;21593;-78
2022/10/27 11:04:46;;;;;;;10.25;4.33;;;;;;;13.69;100.00;100131.70;1604722;88;21108;-76
2022/10/27 11:07:27;;;;;;;9.15;4.78;;;;;;;13.77;100.00;100123.95;1602748;89;21061;-78
2022/10/27 11:10:11;;;;;;;13.50;4.28;;;;;;;13.85;100.00;100121.14;1578887;90;21047;-80
2022/10/27 11:13:02;;;;;;;11.97;4.70;;;;;;;13.88;100.00;100128.89;1577498;91;21042;-76
2022/10/27 11:15:49;;;;;;;6.30;4.05;;;;;;;13.73;100.00;100126.73;1579597;91;21126;-79
2022/10/27 11:18:25;;;;;;;10.35;4.08;;;;;;;13.47;100.00;100138.92;1602850;89;21045;-78
2022/10/27 11:21:00;;;;;;;6.67;4.03;;;;;;;13.28;100.00;100141.14;1607015;85;21133;-80
2022/10/27 11:23:34;;;;;;;8.30;4.50;;;;;;;13.21;100.00;100146.98;1612261;89;21133;-78
2022/10/27 11:26:01;;;;;;;14.93;4.65;;;;;;;13.21;100.00;100143.41;1608881;89;21073;-78
2022/10/27 11:28:51;;;;;;;11.83;4.42;;;;;;;13.21;100.00;100139.33;1612409;89;21093;-80
2022/10/27 11:31:58;;;;;;;12.10;5.15;;;;;;;13.22;100.00;100144.58;1611993;89;21105;-79
2022/10/27 11:34:59;;;;;;;9.38;4.22;;;;;;;13.19;100.00;100148.19;1572119;91;21059;-77
2022/10/27 11:37:48;;;;;;;9.75;4.30;;;;;;;13.14;100.00;100138.39;1576760;91;21082;-77
2022/10/27 11:40:47;;;;;;;19.37;5.47;;;;;;;13.04;100.00;100154.97;1533542;94;21067;-82
2022/10/27 11:43:37;;;;;;;9.15;4.28;;;;;;;12.88;100.00;100160.03;1533361;94;21132;-78
2022/10/27 11:46:31;;;;;;;9.10;4.17;;;;;;;12.75;100.00;100153.00;1543023;92;21141;-77
2022/10/27 11:49:15;;;;;;;8.40;4.08;;;;;;;12.70;100.00;100157.64;1554213;92;21129;-79
2022/10/27 11:51:57;;;;;;;10.18;4.62;;;;;;;12.69;100.00;100154.59;1555623;92;21117;-87
2022/10/27 11:54:23;;;;;;;7.92;4.45;;;;;;;12.71;100.00;100156.59;1553054;92;21126;-76
2022/10/27 11:57:14;;;;;;;8.05;4.35;;;;;;;12.68;100.00;100152.39;1515041;92;21101;-78
2022/10/27 12:00:20;;;;;;;7.00;4.15;;;;;;;12.73;100.00;100158.13;1532545;92;21192;-78
2022/10/27 12:03:16;;;;;;;8.35;4.40;;;;;;;12.79;100.00;100151.11;1553995;92;21081;-82
2022/10/27 12:06:17;;;;;;;8.23;4.42;;;;;;;12.88;100.00;100147.30;1554630;90;21722;-78
2022/10/27 12:08:56;;;;;;;9.65;4.03;;;;;;;12.93;100.00;100146.75;1557542;92;21095;-80
2022/10/27 12:11:37;;;;;;;5.87;4.12;;;;;;;12.96;100.00;100130.60;1555439;92;21034;-81
2022/10/27 12:14:22;;;;;;;6.60;3.87;;;;;;;13.05;100.00;100135.78;1516494;95;21091;-77
2022/10/27 12:17:13;;;;;;;8.55;4.20;;;;;;;13.33;100.00;100124.83;1538320;91;21121;-74
2022/10/27 12:19:42;;;;;;;9.25;4.53;;;;;;;13.74;100.00;100118.89;1574374;90;21108;-78
2022/10/27 12:22:17;;;;;;;5.42;3.92;;;;;;;14.16;100.00;100121.38;1554952;92;21069;-79
2022/10/27 12:25:06;;;;;;;6.55;3.90;;;;;;;14.42;100.00;100132.53;1559648;91;21057;-79
2022/10/27 12:27:53;;;;;;;7.80;4.50;;;;;;;14.74;100.00;100122.70;1601920;88;21584;-76
2022/10/27 12:30:31;;;;;;;9.08;4.83;;;;;;;14.91;100.00;100127.33;1584329;90;21089;-76
2022/10/27 12:33:30;;;;;;;8.45;5.40;;;;;;;14.96;100.00;100141.20;1627377;88;20955;-78
2022/10/27 12:36:08;;;;;;;11.33;5.83;;;;;;;14.83;100.00;100150.11;1628293;88;21536;-78
2022/10/27 12:39:03;;;;;;;9.78;5.25;;;;;;;14.59;100.00;100175.86;1628199;88;21108;-80
2022/10/27 12:41:44;;;;;;;14.85;5.42;;;;;;;14.29;100.00;100182.73;1614023;89;21071;-79
2022/10/27 12:44:51;;;;;;;10.85;5.53;;;;;;;14.00;100.00;100191.78;1614172;89;21050;-81
2022/10/27 12:47:44;;;;;;;11.08;5.25;;;;;;;13.79;100.00;100198.84;1614236;89;21650;-81
2022/10/27 12:50:40;;;;;;;10.35;5.87;;;;;;;13.59;100.00;100208.05;1571412;91;21495;-82
2022/10/27 12:53:27;;;;;;;16.10;6.12;;;;;;;13.40;100.00;100218.10;1595960;90;21077;-78
2022/10/27 12:56:28;;;;;;;11.85;5.47;;;;;;;13.25;100.00;100222.13;1593382;89;21622;-80
2022/10/27 13:12:38;;;;;;;9.73;4.80;;;;;;;13.45;100.00;100200.22;1853534;77;23462;-77
2022/10/27 13:15:34;;;;;;;10.78;5.00;;;;;;;13.51;100.00;100212.23;1735895;81;21042;-80
2022/10/27 13:18:29;;;;;;;12.58;5.10;;;;;;;13.48;100.00;100222.11;1708995;82;21039;-77
2022/10/27 13:21:17;;;;;;;7.90;4.70;;;;;;;13.31;100.00;100222.77;1707887;83;21071;-76
2022/10/27 13:23:50;;;;;;;8.20;4.22;;;;;;;13.09;100.00;100227.20;1707733;84;21560;-82
2022/10/27 13:26:53;;;;;;;6.72;3.65;;;;;;;12.90;100.00;100237.50;1707912;84;21027;-80
2022/10/27 13:29:55;;;;;;;8.85;4.20;;;;;;;12.76;100.00;100237.46;1707905;84;21016;-78
2022/10/27 13:32:28;;;;;;;8.67;4.43;;;;;;;12.58;100.00;100233.69;1644344;85;21010;-76
2022/10/27 13:35:05;;;;;;;9.83;4.78;;;;;;;12.45;100.00;100242.42;1664210;85;21280;-82
2022/10/27 13:37:41;;;;;;;8.55;4.47;;;;;;;12.36;100.00;100247.04;1665127;85;21042;-77
2022/10/27 13:40:22;;;;;;;10.38;5.10;;;;;;;12.28;100.00;100244.36;1657912;86;21039;-78
2022/10/27 13:42:52;;;;;;;7.83;4.40;;;;;;;12.23;100.00;100244.04;1659719;85;21649;-75
2022/10/27 13:45:36;;;;;;;10.90;5.08;;;;;;;12.14;100.00;100243.23;1657908;86;21067;-78
2022/10/27 13:48:14;;;;;;;7.78;4.50;;;;;;;12.08;100.00;100242.08;1657018;85;21071;-77
2022/10/27 13:50:48;;;;;;;7.78;4.70;;;;;;;12.02;100.00;100250.05;1650944;86;21026;-78
2022/10/27 13:53:22;;;;;;;13.40;5.92;;;;;;;11.96;100.00;100246.19;1702410;82;21005;-75
2022/10/27 13:56:00;;;;;;;9.90;5.62;;;;;;;11.90;100.00;100241.45;1691374;83;21013;-76
2022/10/27 13:59:11;;;;;;;10.90;5.40;;;;;;;11.84;100.00;100243.48;1697925;83;21012;-76
2022/10/27 14:01:48;;;;;;;11.43;5.15;;;;;;;11.80;100.00;100240.28;1694598;83;20983;-76
2022/10/27 14:04:20;;;;;;;8.73;5.05;;;;;;;11.76;100.00;100238.44;1697479;83;21513;-78
2022/10/27 14:06:58;;;;;;;9.20;4.83;;;;;;;11.72;100.00;100234.88;1684149;84;21032;-77
2022/10/27 14:09:36;;;;;;;12.40;5.67;;;;;;;11.68;100.00;100228.13;1683607;85;21055;-75
2022/10/27 14:12:36;;;;;;;7.97;4.50;;;;;;;11.65;100.00;100222.56;1672208;84;21139;-76
2022/10/27 14:15:27;;;;;;;9.58;4.83;;;;;;;11.62;100.00;100222.06;1616027;89;21073;-76